sensor_id;sensor_type;location;lat;lon;timestamp;temperature;humidity
68177;DHT22;56478;50.982;7.032;2022-10-23T00:01:22;12.74;90.01
68177;DHT22;56478;50.982;7.032;2022-10-23T00:04:16;12.67;90.08
68177;DHT22;56478;50.982;7.032;2022-10-23T00:06:43;12.67;90.11
68177;DHT22;56478;50.982;7.032;2022-10-23T00:09:11;12.68;90.23
68177;DHT22;56478;50.982;7.032;2022-10-23T00:11:37;12.67;90.37
68177;DHT22;56478;50.982;7.032;2022-10-23T00:14:06;12.67;90.09
68177;DHT22;56478;50.982;7.032;2022-10-23T00:16:32;12.61;90.06
68177;DHT22;56478;50.982;7.032;2022-10-23T00:18:58;12.61;90.40
68177;DHT22;56478;50.982;7.032;2022-10-23T00:21:24;12.61;90.33
68177;DHT22;56478;50.982;7.032;2022-10-23T00:23:50;12.60;90.25
68177;DHT22;56478;50.982;7.032;2022-10-23T00:26:17;12.58;90.11
68177;DHT22;56478;50.982;7.032;2022-10-23T00:28:44;12.54;89.86
68177;DHT22;56478;50.982;7.032;2022-10-23T00:31:11;12.51;90.11
68177;DHT22;56478;50.982;7.032;2022-10-23T00:33:37;12.53;89.94
68177;DHT22;56478;50.982;7.032;2022-10-23T00:36:08;12.50;89.81
68177;DHT22;56478;50.982;7.032;2022-10-23T00:38:34;12.49;90.14
68177;DHT22;56478;50.982;7.032;2022-10-23T00:41:00;12.42;89.95
68177;DHT22;56478;50.982;7.032;2022-10-23T00:43:32;12.43;90.28
68177;DHT22;56478;50.982;7.032;2022-10-23T00:45:59;12.43;90.30
68177;DHT22;56478;50.982;7.032;2022-10-23T00:48:26;12.40;90.22
68177;DHT22;56478;50.982;7.032;2022-10-23T00:50:52;12.43;90.09
68177;DHT22;56478;50.982;7.032;2022-10-23T00:53:20;12.42;90.00
68177;DHT22;56478;50.982;7.032;2022-10-23T00:55:48;12.39;89.88
68177;DHT22;56478;50.982;7.032;2022-10-23T00:58:16;12.43;89.66
68177;DHT22;56478;50.982;7.032;2022-10-23T01:00:50;12.42;89.65
68177;DHT22;56478;50.982;7.032;2022-10-23T01:03:18;12.40;89.90
68177;DHT22;56478;50.982;7.032;2022-10-23T01:08:37;12.33;90.00
68177;DHT22;56478;50.982;7.032;2022-10-23T01:11:11;12.32;89.91
68177;DHT22;56478;50.982;7.032;2022-10-23T01:14:05;12.30;89.83
68177;DHT22;56478;50.982;7.032;2022-10-23T01:16:40;12.26;89.85
68177;DHT22;56478;50.982;7.032;2022-10-23T01:19:45;12.29;89.71
68177;DHT22;56478;50.982;7.032;2022-10-23T01:28:01;12.34;89.89
68177;DHT22;56478;50.982;7.032;2022-10-23T01:30:28;12.36;90.03
68177;DHT22;56478;50.982;7.032;2022-10-23T01:33:06;12.42;90.12
68177;DHT22;56478;50.982;7.032;2022-10-23T01:36:03;12.51;90.28
68177;DHT22;56478;50.982;7.032;2022-10-23T01:38:41;12.57;90.03
68177;DHT22;56478;50.982;7.032;2022-10-23T01:41:20;12.64;90.08
68177;DHT22;56478;50.982;7.032;2022-10-23T01:43:53;12.61;90.11
68177;DHT22;56478;50.982;7.032;2022-10-23T01:46:21;12.63;90.11
68177;DHT22;56478;50.982;7.032;2022-10-23T01:48:51;12.83;90.16
68177;DHT22;56478;50.982;7.032;2022-10-23T01:51:20;12.85;89.85
68177;DHT22;56478;50.982;7.032;2022-10-23T01:53:48;12.75;89.64
68177;DHT22;56478;50.982;7.032;2022-10-23T01:56:19;12.73;89.67
68177;DHT22;56478;50.982;7.032;2022-10-23T01:58:48;12.69;89.82
68177;DHT22;56478;50.982;7.032;2022-10-23T02:01:17;12.74;90.20
68177;DHT22;56478;50.982;7.032;2022-10-23T02:03:45;12.94;90.11
68177;DHT22;56478;50.982;7.032;2022-10-23T02:06:12;12.98;89.63
68177;DHT22;56478;50.982;7.032;2022-10-23T02:08:37;13.08;89.54
68177;DHT22;56478;50.982;7.032;2022-10-23T02:11:07;13.06;89.62
68177;DHT22;56478;50.982;7.032;2022-10-23T02:16:40;13.11;89.68
68177;DHT22;56478;50.982;7.032;2022-10-23T02:22:34;13.06;89.83
68177;DHT22;56478;50.982;7.032;2022-10-23T02:25:10;13.12;89.59
68177;DHT22;56478;50.982;7.032;2022-10-23T02:27:49;13.19;89.59
68177;DHT22;56478;50.982;7.032;2022-10-23T02:30:17;13.27;89.59
68177;DHT22;56478;50.982;7.032;2022-10-23T02:32:46;13.37;89.67
68177;DHT22;56478;50.982;7.032;2022-10-23T02:35:14;13.48;89.50
68177;DHT22;56478;50.982;7.032;2022-10-23T02:37:40;13.53;89.40
68177;DHT22;56478;50.982;7.032;2022-10-23T02:40:07;13.43;89.56
68177;DHT22;56478;50.982;7.032;2022-10-23T02:45:28;13.42;89.53
68177;DHT22;56478;50.982;7.032;2022-10-23T02:48:13;13.39;89.69
68177;DHT22;56478;50.982;7.032;2022-10-23T02:56:25;13.61;89.37
68177;DHT22;56478;50.982;7.032;2022-10-23T02:58:58;13.61;89.66
68177;DHT22;56478;50.982;7.032;2022-10-23T03:01:31;13.75;88.87
68177;DHT22;56478;50.982;7.032;2022-10-23T03:04:02;13.83;88.53
68177;DHT22;56478;50.982;7.032;2022-10-23T03:06:29;13.83;88.57
68177;DHT22;56478;50.982;7.032;2022-10-23T03:08:58;13.72;89.45
68177;DHT22;56478;50.982;7.032;2022-10-23T03:11:25;13.55;89.72
68177;DHT22;56478;50.982;7.032;2022-10-23T03:13:51;13.50;89.66
68177;DHT22;56478;50.982;7.032;2022-10-23T03:16:17;13.55;89.90
68177;DHT22;56478;50.982;7.032;2022-10-23T03:18:42;13.55;89.84
68177;DHT22;56478;50.982;7.032;2022-10-23T03:21:08;13.63;89.60
68177;DHT22;56478;50.982;7.032;2022-10-23T03:23:34;13.55;89.80
68177;DHT22;56478;50.982;7.032;2022-10-23T03:25:59;13.51;90.12
68177;DHT22;56478;50.982;7.032;2022-10-23T03:28:25;13.50;90.23
68177;DHT22;56478;50.982;7.032;2022-10-23T03:30:51;13.55;89.84
68177;DHT22;56478;50.982;7.032;2022-10-23T03:33:17;13.82;88.95
68177;DHT22;56478;50.982;7.032;2022-10-23T03:35:43;13.85;88.84
68177;DHT22;56478;50.982;7.032;2022-10-23T03:38:09;13.89;88.63
68177;DHT22;56478;50.982;7.032;2022-10-23T03:40:34;13.85;89.07
68177;DHT22;56478;50.982;7.032;2022-10-23T03:43:01;13.99;88.36
68177;DHT22;56478;50.982;7.032;2022-10-23T03:45:27;14.05;88.15
68177;DHT22;56478;50.982;7.032;2022-10-23T03:47:52;14.01;88.56
68177;DHT22;56478;50.982;7.032;2022-10-23T03:50:19;13.83;88.99
68177;DHT22;56478;50.982;7.032;2022-10-23T03:52:44;13.71;89.89
68177;DHT22;56478;50.982;7.032;2022-10-23T03:55:10;13.63;90.07
68177;DHT22;56478;50.982;7.032;2022-10-23T03:57:36;13.57;90.08
68177;DHT22;56478;50.982;7.032;2022-10-23T04:00:04;13.50;90.29
68177;DHT22;56478;50.982;7.032;2022-10-23T04:02:30;13.47;90.51
68177;DHT22;56478;50.982;7.032;2022-10-23T04:04:56;13.43;90.47
68177;DHT22;56478;50.982;7.032;2022-10-23T04:07:22;13.42;90.65
68177;DHT22;56478;50.982;7.032;2022-10-23T04:09:48;13.37;90.57
68177;DHT22;56478;50.982;7.032;2022-10-23T04:12:13;13.36;90.62
68177;DHT22;56478;50.982;7.032;2022-10-23T04:14:39;13.42;90.57
68177;DHT22;56478;50.982;7.032;2022-10-23T04:17:05;13.44;90.45
68177;DHT22;56478;50.982;7.032;2022-10-23T04:19:31;13.40;90.40
68177;DHT22;56478;50.982;7.032;2022-10-23T04:21:56;13.39;90.59
68177;DHT22;56478;50.982;7.032;2022-10-23T04:24:23;13.37;90.47
68177;DHT22;56478;50.982;7.032;2022-10-23T04:26:50;13.43;90.42
68177;DHT22;56478;50.982;7.032;2022-10-23T04:29:17;13.44;90.31
68177;DHT22;56478;50.982;7.032;2022-10-23T04:31:43;13.42;90.50
68177;DHT22;56478;50.982;7.032;2022-10-23T04:34:09;13.35;90.43
68177;DHT22;56478;50.982;7.032;2022-10-23T04:36:35;13.37;90.45
68177;DHT22;56478;50.982;7.032;2022-10-23T04:39:01;13.42;90.46
68177;DHT22;56478;50.982;7.032;2022-10-23T04:41:26;13.40;90.54
68177;DHT22;56478;50.982;7.032;2022-10-23T04:43:52;13.35;90.66
68177;DHT22;56478;50.982;7.032;2022-10-23T04:46:18;13.30;90.59
68177;DHT22;56478;50.982;7.032;2022-10-23T04:48:43;13.29;90.54
68177;DHT22;56478;50.982;7.032;2022-10-23T04:51:09;13.27;90.59
68177;DHT22;56478;50.982;7.032;2022-10-23T04:53:35;13.23;90.72
68177;DHT22;56478;50.982;7.032;2022-10-23T04:56:03;13.16;90.80
68177;DHT22;56478;50.982;7.032;2022-10-23T04:58:30;13.22;90.81
68177;DHT22;56478;50.982;7.032;2022-10-23T05:00:56;13.32;90.64
68177;DHT22;56478;50.982;7.032;2022-10-23T05:03:24;13.30;90.55
68177;DHT22;56478;50.982;7.032;2022-10-23T05:05:52;13.33;90.49
68177;DHT22;56478;50.982;7.032;2022-10-23T05:08:20;13.39;90.19
68177;DHT22;56478;50.982;7.032;2022-10-23T05:10:47;13.37;90.27
68177;DHT22;56478;50.982;7.032;2022-10-23T05:13:17;13.39;90.34
68177;DHT22;56478;50.982;7.032;2022-10-23T05:15:48;13.50;89.67
68177;DHT22;56478;50.982;7.032;2022-10-23T05:19:03;13.70;89.08
68177;DHT22;56478;50.982;7.032;2022-10-23T05:21:18;13.78;88.59
68177;DHT22;56478;50.982;7.032;2022-10-23T05:23:44;13.70;88.88
68177;DHT22;56478;50.982;7.032;2022-10-23T05:26:10;13.72;88.80
68177;DHT22;56478;50.982;7.032;2022-10-23T05:28:36;13.67;88.95
68177;DHT22;56478;50.982;7.032;2022-10-23T05:31:03;13.70;88.72
68177;DHT22;56478;50.982;7.032;2022-10-23T05:33:30;13.74;88.36
68177;DHT22;56478;50.982;7.032;2022-10-23T05:35:57;13.67;88.69
68177;DHT22;56478;50.982;7.032;2022-10-23T05:38:25;13.71;88.50
68177;DHT22;56478;50.982;7.032;2022-10-23T05:40:52;13.75;88.49
68177;DHT22;56478;50.982;7.032;2022-10-23T05:43:18;13.72;88.14
68177;DHT22;56478;50.982;7.032;2022-10-23T05:45:44;13.82;87.66
68177;DHT22;56478;50.982;7.032;2022-10-23T05:48:09;13.88;87.33
68177;DHT22;56478;50.982;7.032;2022-10-23T05:50:36;13.92;87.15
68177;DHT22;56478;50.982;7.032;2022-10-23T05:53:02;13.92;87.01
68177;DHT22;56478;50.982;7.032;2022-10-23T05:55:28;13.91;86.97
68177;DHT22;56478;50.982;7.032;2022-10-23T05:57:54;13.85;87.20
68177;DHT22;56478;50.982;7.032;2022-10-23T06:00:20;13.88;87.11
68177;DHT22;56478;50.982;7.032;2022-10-23T06:02:45;13.89;86.90
68177;DHT22;56478;50.982;7.032;2022-10-23T06:05:11;13.85;86.90
68177;DHT22;56478;50.982;7.032;2022-10-23T06:07:37;13.91;86.60
68177;DHT22;56478;50.982;7.032;2022-10-23T06:10:04;14.01;86.20
68177;DHT22;56478;50.982;7.032;2022-10-23T06:12:30;13.99;86.12
68177;DHT22;56478;50.982;7.032;2022-10-23T06:14:57;13.97;86.36
68177;DHT22;56478;50.982;7.032;2022-10-23T06:17:23;13.98;86.20
68177;DHT22;56478;50.982;7.032;2022-10-23T06:19:48;14.04;85.99
68177;DHT22;56478;50.982;7.032;2022-10-23T06:22:14;14.05;85.86
68177;DHT22;56478;50.982;7.032;2022-10-23T06:24:41;14.12;85.52
68177;DHT22;56478;50.982;7.032;2022-10-23T06:27:06;14.16;85.35
68177;DHT22;56478;50.982;7.032;2022-10-23T06:29:32;14.17;85.34
68177;DHT22;56478;50.982;7.032;2022-10-23T06:31:58;14.12;85.65
68177;DHT22;56478;50.982;7.032;2022-10-23T06:34:24;14.27;85.14
68177;DHT22;56478;50.982;7.032;2022-10-23T06:36:50;14.37;84.51
68177;DHT22;56478;50.982;7.032;2022-10-23T06:39:15;14.38;84.47
68177;DHT22;56478;50.982;7.032;2022-10-23T06:41:41;14.44;84.20
68177;DHT22;56478;50.982;7.032;2022-10-23T06:44:08;14.50;83.93
68177;DHT22;56478;50.982;7.032;2022-10-23T06:46:35;14.52;83.96
68177;DHT22;56478;50.982;7.032;2022-10-23T06:49:01;14.58;84.16
68177;DHT22;56478;50.982;7.032;2022-10-23T06:51:27;14.64;83.68
68177;DHT22;56478;50.982;7.032;2022-10-23T06:53:54;14.68;83.72
68177;DHT22;56478;50.982;7.032;2022-10-23T06:56:20;14.77;83.18
68177;DHT22;56478;50.982;7.032;2022-10-23T06:58:47;14.81;82.95
68177;DHT22;56478;50.982;7.032;2022-10-23T07:01:13;14.79;83.00
68177;DHT22;56478;50.982;7.032;2022-10-23T07:03:44;14.82;82.63
68177;DHT22;56478;50.982;7.032;2022-10-23T07:06:10;14.85;82.84
68177;DHT22;56478;50.982;7.032;2022-10-23T07:08:39;14.89;82.33
68177;DHT22;56478;50.982;7.032;2022-10-23T07:11:07;14.93;82.28
68177;DHT22;56478;50.982;7.032;2022-10-23T07:13:34;14.96;82.14
68177;DHT22;56478;50.982;7.032;2022-10-23T07:16:17;15.03;81.63
68177;DHT22;56478;50.982;7.032;2022-10-23T07:18:46;15.10;81.65
68177;DHT22;56478;50.982;7.032;2022-10-23T07:21:12;15.16;80.98
68177;DHT22;56478;50.982;7.032;2022-10-23T07:23:38;15.24;80.72
68177;DHT22;56478;50.982;7.032;2022-10-23T07:26:10;15.39;80.18
68177;DHT22;56478;50.982;7.032;2022-10-23T07:28:41;15.59;79.28
68177;DHT22;56478;50.982;7.032;2022-10-23T07:31:07;15.89;78.50
68177;DHT22;56478;50.982;7.032;2022-10-23T07:33:33;16.23;76.95
68177;DHT22;56478;50.982;7.032;2022-10-23T07:35:59;16.34;76.02
68177;DHT22;56478;50.982;7.032;2022-10-23T07:38:25;16.31;76.30
68177;DHT22;56478;50.982;7.032;2022-10-23T07:40:52;16.41;75.75
68177;DHT22;56478;50.982;7.032;2022-10-23T07:43:18;16.58;75.07
68177;DHT22;56478;50.982;7.032;2022-10-23T07:45:48;16.55;74.96
68177;DHT22;56478;50.982;7.032;2022-10-23T07:48:15;16.57;75.08
68177;DHT22;56478;50.982;7.032;2022-10-23T07:50:41;16.67;74.50
68177;DHT22;56478;50.982;7.032;2022-10-23T07:53:13;16.93;73.68
68177;DHT22;56478;50.982;7.032;2022-10-23T07:55:53;17.13;72.90
68177;DHT22;56478;50.982;7.032;2022-10-23T07:58:19;17.58;71.25
68177;DHT22;56478;50.982;7.032;2022-10-23T08:00:47;18.38;68.70
68177;DHT22;56478;50.982;7.032;2022-10-23T08:03:17;18.44;68.17
68177;DHT22;56478;50.982;7.032;2022-10-23T08:05:43;18.85;66.98
68177;DHT22;56478;50.982;7.032;2022-10-23T08:08:09;19.30;64.72
68177;DHT22;56478;50.982;7.032;2022-10-23T08:10:35;20.07;62.88
68177;DHT22;56478;50.982;7.032;2022-10-23T08:13:01;21.25;58.74
68177;DHT22;56478;50.982;7.032;2022-10-23T08:15:27;21.69;56.73
68177;DHT22;56478;50.982;7.032;2022-10-23T08:17:52;20.13;60.84
68177;DHT22;56478;50.982;7.032;2022-10-23T08:20:18;19.61;62.76
68177;DHT22;56478;50.982;7.032;2022-10-23T08:22:44;19.23;64.31
68177;DHT22;56478;50.982;7.032;2022-10-23T08:25:10;19.04;64.46
68177;DHT22;56478;50.982;7.032;2022-10-23T08:27:35;19.10;64.57
68177;DHT22;56478;50.982;7.032;2022-10-23T08:30:01;19.39;63.83
68177;DHT22;56478;50.982;7.032;2022-10-23T08:32:28;19.04;64.75
68177;DHT22;56478;50.982;7.032;2022-10-23T08:34:55;18.93;65.56
68177;DHT22;56478;50.982;7.032;2022-10-23T08:37:21;18.82;65.51
68177;DHT22;56478;50.982;7.032;2022-10-23T08:39:46;18.71;66.12
68177;DHT22;56478;50.982;7.032;2022-10-23T08:42:21;18.49;66.73
68177;DHT22;56478;50.982;7.032;2022-10-23T08:45:04;18.38;67.13
68177;DHT22;56478;50.982;7.032;2022-10-23T08:47:39;18.33;67.43
68177;DHT22;56478;50.982;7.032;2022-10-23T08:50:40;18.35;67.63
68177;DHT22;56478;50.982;7.032;2022-10-23T08:56:08;18.56;66.89
68177;DHT22;56478;50.982;7.032;2022-10-23T08:58:53;19.52;63.93
68177;DHT22;56478;50.982;7.032;2022-10-23T09:02:04;19.55;63.33
68177;DHT22;56478;50.982;7.032;2022-10-23T09:04:35;19.44;63.90
68177;DHT22;56478;50.982;7.032;2022-10-23T09:12:20;20.76;60.80
68177;DHT22;56478;50.982;7.032;2022-10-23T09:15:03;21.15;59.44
68177;DHT22;56478;50.982;7.032;2022-10-23T09:17:35;21.60;57.51
68177;DHT22;56478;50.982;7.032;2022-10-23T09:20:25;22.28;55.91
68177;DHT22;56478;50.982;7.032;2022-10-23T09:22:58;22.93;54.03
68177;DHT22;56478;50.982;7.032;2022-10-23T09:25:30;22.83;53.92
68177;DHT22;56478;50.982;7.032;2022-10-23T09:27:58;22.86;53.85
68177;DHT22;56478;50.982;7.032;2022-10-23T09:33:13;21.32;57.70
68177;DHT22;56478;50.982;7.032;2022-10-23T09:35:54;20.82;59.91
68177;DHT22;56478;50.982;7.032;2022-10-23T09:38:37;20.93;59.44
68177;DHT22;56478;50.982;7.032;2022-10-23T09:41:17;20.80;59.77
68177;DHT22;56478;50.982;7.032;2022-10-23T09:43:44;21.25;59.12
68177;DHT22;56478;50.982;7.032;2022-10-23T09:46:09;21.45;58.88
68177;DHT22;56478;50.982;7.032;2022-10-23T09:48:37;21.31;59.10
68177;DHT22;56478;50.982;7.032;2022-10-23T09:51:20;21.21;59.61
68177;DHT22;56478;50.982;7.032;2022-10-23T09:53:52;21.49;58.68
68177;DHT22;56478;50.982;7.032;2022-10-23T09:58:57;21.01;60.16
68177;DHT22;56478;50.982;7.032;2022-10-23T10:01:29;20.84;61.10
68177;DHT22;56478;50.982;7.032;2022-10-23T10:03:55;20.46;61.92
68177;DHT22;56478;50.982;7.032;2022-10-23T10:06:32;20.46;61.98
68177;DHT22;56478;50.982;7.032;2022-10-23T10:08:59;20.37;62.67
68177;DHT22;56478;50.982;7.032;2022-10-23T10:11:32;20.34;62.67
68177;DHT22;56478;50.982;7.032;2022-10-23T10:24:58;19.68;65.32
68177;DHT22;56478;50.982;7.032;2022-10-23T10:30:23;19.30;66.45
68177;DHT22;56478;50.982;7.032;2022-10-23T10:32:57;19.23;66.35
68177;DHT22;56478;50.982;7.032;2022-10-23T10:35:49;19.18;66.37
68177;DHT22;56478;50.982;7.032;2022-10-23T10:38:45;19.18;66.42
68177;DHT22;56478;50.982;7.032;2022-10-23T10:46:47;19.14;66.12
68177;DHT22;56478;50.982;7.032;2022-10-23T10:49:45;19.00;66.16
68177;DHT22;56478;50.982;7.032;2022-10-23T10:55:20;18.93;66.53
68177;DHT22;56478;50.982;7.032;2022-10-23T10:57:55;18.92;66.44
68177;DHT22;56478;50.982;7.032;2022-10-23T11:00:22;18.89;66.37
68177;DHT22;56478;50.982;7.032;2022-10-23T11:02:52;18.88;66.21
68177;DHT22;56478;50.982;7.032;2022-10-23T11:05:36;18.85;66.76
68177;DHT22;56478;50.982;7.032;2022-10-23T11:10:56;18.80;66.82
68177;DHT22;56478;50.982;7.032;2022-10-23T11:13:38;18.73;66.91
68177;DHT22;56478;50.982;7.032;2022-10-23T11:16:17;18.61;67.53
68177;DHT22;56478;50.982;7.032;2022-10-23T11:24:42;18.38;68.14
68177;DHT22;56478;50.982;7.032;2022-10-23T11:28:15;18.40;68.40
68177;DHT22;56478;50.982;7.032;2022-10-23T11:30:22;18.34;68.67
68177;DHT22;56478;50.982;7.032;2022-10-23T11:38:34;17.89;72.11
68177;DHT22;56478;50.982;7.032;2022-10-23T11:41:03;17.96;71.79
68177;DHT22;56478;50.982;7.032;2022-10-23T11:43:54;18.04;71.38
68177;DHT22;56478;50.982;7.032;2022-10-23T11:48:51;18.13;70.69
68177;DHT22;56478;50.982;7.032;2022-10-23T11:56:35;18.71;69.16
68177;DHT22;56478;50.982;7.032;2022-10-23T11:59:32;18.95;68.81
68177;DHT22;56478;50.982;7.032;2022-10-23T12:02:03;19.03;68.12
68177;DHT22;56478;50.982;7.032;2022-10-23T12:04:44;19.10;67.77
68177;DHT22;56478;50.982;7.032;2022-10-23T12:07:28;19.11;67.27
68177;DHT22;56478;50.982;7.032;2022-10-23T12:09:57;19.06;67.66
68177;DHT22;56478;50.982;7.032;2022-10-23T12:12:33;19.04;67.87
68177;DHT22;56478;50.982;7.032;2022-10-23T12:15:19;19.15;68.01
68177;DHT22;56478;50.982;7.032;2022-10-23T12:17:47;19.17;67.66
68177;DHT22;56478;50.982;7.032;2022-10-23T12:34:23;19.42;66.31
68177;DHT22;56478;50.982;7.032;2022-10-23T12:39:57;19.48;66.44
68177;DHT22;56478;50.982;7.032;2022-10-23T12:42:25;19.41;66.46
68177;DHT22;56478;50.982;7.032;2022-10-23T12:45:02;19.38;66.82
68177;DHT22;56478;50.982;7.032;2022-10-23T12:47:30;19.42;66.87
68177;DHT22;56478;50.982;7.032;2022-10-23T12:49:56;19.28;66.87
68177;DHT22;56478;50.982;7.032;2022-10-23T12:52:22;19.31;67.34
68177;DHT22;56478;50.982;7.032;2022-10-23T12:54:49;19.28;67.02
68177;DHT22;56478;50.982;7.032;2022-10-23T12:57:22;19.27;67.47
68177;DHT22;56478;50.982;7.032;2022-10-23T12:59:54;19.24;67.20
68177;DHT22;56478;50.982;7.032;2022-10-23T13:02:22;19.20;67.26
68177;DHT22;56478;50.982;7.032;2022-10-23T13:04:50;19.17;67.84
68177;DHT22;56478;50.982;7.032;2022-10-23T13:07:23;19.14;67.90
68177;DHT22;56478;50.982;7.032;2022-10-23T13:09:50;19.08;68.19
68177;DHT22;56478;50.982;7.032;2022-10-23T13:12:22;19.06;68.45
68177;DHT22;56478;50.982;7.032;2022-10-23T13:22:57;18.97;68.96
68177;DHT22;56478;50.982;7.032;2022-10-23T13:25:41;18.97;69.09
68177;DHT22;56478;50.982;7.032;2022-10-23T13:28:20;18.99;69.27
68177;DHT22;56478;50.982;7.032;2022-10-23T13:31:02;18.99;69.07
68177;DHT22;56478;50.982;7.032;2022-10-23T13:33:35;19.04;69.15
68177;DHT22;56478;50.982;7.032;2022-10-23T13:36:26;19.07;69.06
68177;DHT22;56478;50.982;7.032;2022-10-23T13:41:24;19.08;69.02
68177;DHT22;56478;50.982;7.032;2022-10-23T13:43:50;19.08;68.89
68177;DHT22;56478;50.982;7.032;2022-10-23T13:46:20;19.07;69.30
68177;DHT22;56478;50.982;7.032;2022-10-23T13:48:47;19.10;69.10
68177;DHT22;56478;50.982;7.032;2022-10-23T13:51:23;19.13;69.24
68177;DHT22;56478;50.982;7.032;2022-10-23T13:53:50;19.10;69.16
68177;DHT22;56478;50.982;7.032;2022-10-23T13:56:17;19.14;69.02
68177;DHT22;56478;50.982;7.032;2022-10-23T13:58:43;19.14;69.19
68177;DHT22;56478;50.982;7.032;2022-10-23T14:01:31;19.10;69.14
68177;DHT22;56478;50.982;7.032;2022-10-23T14:03:58;19.06;69.59
68177;DHT22;56478;50.982;7.032;2022-10-23T14:06:24;19.13;69.33
68177;DHT22;56478;50.982;7.032;2022-10-23T14:08:50;19.11;69.32
68177;DHT22;56478;50.982;7.032;2022-10-23T14:11:18;19.10;69.38
68177;DHT22;56478;50.982;7.032;2022-10-23T14:13:44;19.13;69.64
68177;DHT22;56478;50.982;7.032;2022-10-23T14:16:12;19.14;69.62
68177;DHT22;56478;50.982;7.032;2022-10-23T14:18:39;19.11;69.81
68177;DHT22;56478;50.982;7.032;2022-10-23T14:21:08;19.11;69.86
68177;DHT22;56478;50.982;7.032;2022-10-23T14:23:35;19.10;69.88
68177;DHT22;56478;50.982;7.032;2022-10-23T14:26:06;19.07;70.13
68177;DHT22;56478;50.982;7.032;2022-10-23T14:28:32;19.06;70.31
68177;DHT22;56478;50.982;7.032;2022-10-23T14:31:12;19.02;70.43
68177;DHT22;56478;50.982;7.032;2022-10-23T14:33:39;19.07;70.26
68177;DHT22;56478;50.982;7.032;2022-10-23T14:36:05;19.07;70.38
68177;DHT22;56478;50.982;7.032;2022-10-23T14:38:31;19.03;70.61
68177;DHT22;56478;50.982;7.032;2022-10-23T14:40:57;19.02;70.68
68177;DHT22;56478;50.982;7.032;2022-10-23T14:43:23;18.95;71.15
68177;DHT22;56478;50.982;7.032;2022-10-23T14:45:49;18.90;71.30
68177;DHT22;56478;50.982;7.032;2022-10-23T14:48:15;18.86;71.41
68177;DHT22;56478;50.982;7.032;2022-10-23T14:50:43;18.88;71.63
68177;DHT22;56478;50.982;7.032;2022-10-23T14:53:09;18.85;71.66
68177;DHT22;56478;50.982;7.032;2022-10-23T14:55:35;18.83;71.85
68177;DHT22;56478;50.982;7.032;2022-10-23T14:58:01;18.80;71.73
68177;DHT22;56478;50.982;7.032;2022-10-23T15:00:27;18.83;71.65
68177;DHT22;56478;50.982;7.032;2022-10-23T15:02:52;18.80;71.76
68177;DHT22;56478;50.982;7.032;2022-10-23T15:05:18;18.71;72.10
68177;DHT22;56478;50.982;7.032;2022-10-23T15:07:44;18.76;71.99
68177;DHT22;56478;50.982;7.032;2022-10-23T15:10:10;18.75;72.04
68177;DHT22;56478;50.982;7.032;2022-10-23T15:12:36;18.75;72.04
68177;DHT22;56478;50.982;7.032;2022-10-23T15:15:04;18.71;72.00
68177;DHT22;56478;50.982;7.032;2022-10-23T15:17:30;18.66;72.21
68177;DHT22;56478;50.982;7.032;2022-10-23T15:20:01;18.62;72.43
68177;DHT22;56478;50.982;7.032;2022-10-23T15:22:27;18.62;72.56
68177;DHT22;56478;50.982;7.032;2022-10-23T15:24:53;18.62;72.47
68177;DHT22;56478;50.982;7.032;2022-10-23T15:27:20;18.59;72.69
68177;DHT22;56478;50.982;7.032;2022-10-23T15:29:46;18.61;72.76
68177;DHT22;56478;50.982;7.032;2022-10-23T15:32:12;18.59;72.82
68177;DHT22;56478;50.982;7.032;2022-10-23T15:34:38;18.58;72.94
68177;DHT22;56478;50.982;7.032;2022-10-23T15:37:06;18.52;73.14
68177;DHT22;56478;50.982;7.032;2022-10-23T15:39:32;18.52;73.23
68177;DHT22;56478;50.982;7.032;2022-10-23T15:42:04;18.52;73.29
68177;DHT22;56478;50.982;7.032;2022-10-23T15:44:31;18.51;73.32
68177;DHT22;56478;50.982;7.032;2022-10-23T15:46:59;18.48;73.38
68177;DHT22;56478;50.982;7.032;2022-10-23T15:49:26;18.58;73.00
68177;DHT22;56478;50.982;7.032;2022-10-23T15:51:53;18.56;73.23
68177;DHT22;56478;50.982;7.032;2022-10-23T15:54:20;18.52;73.35
68177;DHT22;56478;50.982;7.032;2022-10-23T15:56:47;18.51;73.39
68177;DHT22;56478;50.982;7.032;2022-10-23T15:59:14;18.47;73.47
68177;DHT22;56478;50.982;7.032;2022-10-23T16:01:41;18.45;73.71
68177;DHT22;56478;50.982;7.032;2022-10-23T16:04:06;18.45;73.67
68177;DHT22;56478;50.982;7.032;2022-10-23T16:06:32;18.48;73.63
68177;DHT22;56478;50.982;7.032;2022-10-23T16:08:59;18.45;74.43
68177;DHT22;56478;50.982;7.032;2022-10-23T16:11:30;18.41;74.66
68177;DHT22;56478;50.982;7.032;2022-10-23T16:13:57;18.31;76.01
68177;DHT22;56478;50.982;7.032;2022-10-23T16:16:23;18.23;77.67
68177;DHT22;56478;50.982;7.032;2022-10-23T16:18:50;18.09;79.92
68177;DHT22;56478;50.982;7.032;2022-10-23T16:21:18;18.02;78.36
68177;DHT22;56478;50.982;7.032;2022-10-23T16:23:44;17.86;81.01
68177;DHT22;56478;50.982;7.032;2022-10-23T16:26:11;17.78;82.18
68177;DHT22;56478;50.982;7.032;2022-10-23T16:28:37;17.72;82.63
68177;DHT22;56478;50.982;7.032;2022-10-23T16:31:23;17.57;84.30
68177;DHT22;56478;50.982;7.032;2022-10-23T16:33:50;17.41;85.19
68177;DHT22;56478;50.982;7.032;2022-10-23T16:36:17;17.54;82.93
68177;DHT22;56478;50.982;7.032;2022-10-23T16:38:43;17.51;84.45
68177;DHT22;56478;50.982;7.032;2022-10-23T16:41:09;17.40;85.27
68177;DHT22;56478;50.982;7.032;2022-10-23T16:43:34;17.31;86.41
68177;DHT22;56478;50.982;7.032;2022-10-23T16:46:05;17.24;86.59
68177;DHT22;56478;50.982;7.032;2022-10-23T16:48:32;17.19;87.24
68177;DHT22;56478;50.982;7.032;2022-10-23T16:50:58;17.13;87.97
68177;DHT22;56478;50.982;7.032;2022-10-23T16:53:24;17.13;87.97
68177;DHT22;56478;50.982;7.032;2022-10-23T16:55:56;17.09;88.18
68177;DHT22;56478;50.982;7.032;2022-10-23T16:58:23;17.00;88.09
68177;DHT22;56478;50.982;7.032;2022-10-23T17:01:07;17.06;88.16
68177;DHT22;56478;50.982;7.032;2022-10-23T17:03:39;17.09;87.80
68177;DHT22;56478;50.982;7.032;2022-10-23T17:06:07;17.23;86.59
68177;DHT22;56478;50.982;7.032;2022-10-23T17:08:33;17.07;86.68
68177;DHT22;56478;50.982;7.032;2022-10-23T17:11:15;17.00;86.89
68177;DHT22;56478;50.982;7.032;2022-10-23T17:13:43;16.95;87.08
68177;DHT22;56478;50.982;7.032;2022-10-23T17:16:13;16.95;87.03
68177;DHT22;56478;50.982;7.032;2022-10-23T17:18:41;16.90;87.36
68177;DHT22;56478;50.982;7.032;2022-10-23T17:21:08;16.80;88.06
68177;DHT22;56478;50.982;7.032;2022-10-23T17:23:34;16.67;88.77
68177;DHT22;56478;50.982;7.032;2022-10-23T17:26:00;16.55;89.57
68177;DHT22;56478;50.982;7.032;2022-10-23T17:28:28;16.41;90.85
68177;DHT22;56478;50.982;7.032;2022-10-23T17:30:54;16.37;91.06
68177;DHT22;56478;50.982;7.032;2022-10-23T17:33:20;16.31;91.43
68177;DHT22;56478;50.982;7.032;2022-10-23T17:35:45;16.26;91.98